SBI1104 USSS-UIII
Flight info
| Callsign | SBI1104 |
|---|---|
| Flight time | 3h 12m |
| Altitude | 37000 |
| Route | DOSUM6K DOSUM T377 SALER N992 NH R372 POGUT/K0830F390 R372 ADONI A300 ROTLI N869 RO A817 RUSAM G490 NH NH4B |
| Aircraft | A310/H-SDFGHIM1RTUWXY/LB1 |
Departure
| Time | 2026-05-01 10:32 |
|---|---|
| Airport | Koltsovo Airport (USSS) |
Arrival
| Time | 2026-05-01 13:44 |
|---|---|
| Airport | Irkutsk International Airport (UIII) |
| Time | Latitude | Longitude | Altitude | Speed | Heading |
|---|---|---|---|---|---|
| 2026-05-01 10:32 | 56.94293 | 61.16175 | 30129 ft | 417 kts | 30° |
| 2026-05-01 10:32 | 56.96970 | 61.18272 | 30722 ft | 420 kts | 24° |
| 2026-05-01 10:32 | 57.02471 | 61.21951 | 31757 ft | 423 kts | 22° |
| 2026-05-01 10:33 | 57.08055 | 61.25690 | 32564 ft | 432 kts | 22° |
| 2026-05-01 10:33 | 57.13775 | 61.29501 | 33375 ft | 442 kts | 22° |
| 2026-05-01 10:34 | 57.16696 | 61.31461 | 33620 ft | 451 kts | 21° |
| 2026-05-01 10:34 | 57.19654 | 61.33440 | 34006 ft | 454 kts | 21° |
| 2026-05-01 10:34 | 57.22634 | 61.35445 | 34309 ft | 458 kts | 21° |
| 2026-05-01 10:35 | 57.28667 | 61.39712 | 34610 ft | 471 kts | 32° |
| 2026-05-01 10:35 | 57.31241 | 61.43313 | 34950 ft | 462 kts | 53° |
| 2026-05-01 10:35 | 57.32957 | 61.48175 | 35222 ft | 447 kts | 76° |
| 2026-05-01 10:35 | 57.33716 | 61.53632 | 35504 ft | 436 kts | 88° |
| 2026-05-01 10:36 | 57.35050 | 61.64843 | 35846 ft | 456 kts | 78° |
| 2026-05-01 10:36 | 57.36142 | 61.70405 | 36116 ft | 463 kts | 74° |
| 2026-05-01 10:36 | 57.37375 | 61.75964 | 36233 ft | 471 kts | 73° |
| 2026-05-01 10:37 | 57.38659 | 61.81615 | 36247 ft | 481 kts | 73° |
| 2026-05-01 10:37 | 57.41284 | 61.93284 | 36290 ft | 498 kts | 73° |
| 2026-05-01 10:37 | 57.42584 | 61.99272 | 36511 ft | 502 kts | 73° |
| 2026-05-01 10:38 | 57.43883 | 62.05205 | 36740 ft | 505 kts | 73° |
| 2026-05-01 10:38 | 57.45217 | 62.11278 | 36886 ft | 510 kts | 73° |
| 2026-05-01 10:38 | 57.47856 | 62.23539 | 36962 ft | 510 kts | 74° |
| 2026-05-01 10:39 | 57.50248 | 62.35924 | 36971 ft | 509 kts | 76° |
| 2026-05-01 10:39 | 57.52647 | 62.48337 | 36970 ft | 510 kts | 75° |
| 2026-05-01 10:40 | 57.55062 | 62.60723 | 36958 ft | 509 kts | 75° |
| 2026-05-01 10:40 | 57.57454 | 62.73152 | 36964 ft | 509 kts | 76° |
| 2026-05-01 10:41 | 57.59836 | 62.85589 | 36965 ft | 509 kts | 76° |
| 2026-05-01 10:42 | 57.63373 | 63.04300 | 36982 ft | 509 kts | 76° |
| 2026-05-01 10:42 | 57.65727 | 63.16776 | 36962 ft | 510 kts | 76° |
| 2026-05-01 10:43 | 57.68069 | 63.29318 | 36958 ft | 512 kts | 76° |
| 2026-05-01 10:43 | 57.70400 | 63.41880 | 36962 ft | 511 kts | 76° |
| 2026-05-01 10:44 | 57.72728 | 63.54446 | 36948 ft | 512 kts | 76° |
| 2026-05-01 10:44 | 57.75057 | 63.67024 | 36924 ft | 511 kts | 76° |
| 2026-05-01 10:45 | 57.77345 | 63.79641 | 36937 ft | 513 kts | 77° |
| 2026-05-01 10:45 | 57.79630 | 63.92300 | 36938 ft | 512 kts | 77° |
| 2026-05-01 10:46 | 57.81908 | 64.04973 | 36947 ft | 513 kts | 77° |
| 2026-05-01 10:46 | 57.84033 | 64.17699 | 36950 ft | 507 kts | 84° |
| 2026-05-01 10:47 | 57.85068 | 64.30683 | 36944 ft | 502 kts | 89° |
| 2026-05-01 10:47 | 57.86113 | 64.43678 | 36904 ft | 504 kts | 87° |
| 2026-05-01 10:48 | 57.86901 | 64.56688 | 36936 ft | 499 kts | 92° |
| 2026-05-01 10:48 | 57.87294 | 64.69692 | 36935 ft | 498 kts | 93° |
| 2026-05-01 10:49 | 57.87722 | 64.82695 | 36917 ft | 499 kts | 92° |
| 2026-05-01 10:49 | 57.88154 | 64.95714 | 36911 ft | 500 kts | 93° |
| 2026-05-01 10:50 | 57.88561 | 65.08605 | 36912 ft | 501 kts | 93° |
| 2026-05-01 10:50 | 57.88962 | 65.21886 | 36908 ft | 501 kts | 93° |
| 2026-05-01 10:51 | 57.89339 | 65.34999 | 36913 ft | 506 kts | 93° |
| 2026-05-01 10:51 | 57.89715 | 65.48229 | 36898 ft | 507 kts | 93° |
| 2026-05-01 10:52 | 57.90076 | 65.61465 | 36879 ft | 507 kts | 93° |
| 2026-05-01 10:52 | 57.90455 | 65.74705 | 36888 ft | 507 kts | 93° |
| 2026-05-01 10:53 | 57.90813 | 65.87952 | 36892 ft | 506 kts | 94° |
| 2026-05-01 10:53 | 57.91128 | 66.01176 | 36897 ft | 507 kts | 94° |
| 2026-05-01 10:54 | 57.91420 | 66.14414 | 36849 ft | 507 kts | 94° |
| 2026-05-01 10:54 | 57.91743 | 66.27633 | 36863 ft | 506 kts | 94° |
| 2026-05-01 10:55 | 57.92058 | 66.40783 | 36873 ft | 507 kts | 94° |
| 2026-05-01 10:55 | 57.92307 | 66.54005 | 36878 ft | 506 kts | 95° |
| 2026-05-01 10:56 | 57.92559 | 66.67240 | 36871 ft | 506 kts | 95° |
| 2026-05-01 10:56 | 57.92799 | 66.80472 | 36877 ft | 506 kts | 95° |
| 2026-05-01 10:57 | 57.93008 | 66.93702 | 36859 ft | 507 kts | 95° |
| 2026-05-01 10:57 | 57.93222 | 67.06975 | 36864 ft | 507 kts | 95° |
| 2026-05-01 10:58 | 57.93408 | 67.20249 | 36866 ft | 507 kts | 95° |
| 2026-05-01 10:58 | 57.93596 | 67.33516 | 36869 ft | 507 kts | 95° |
| 2026-05-01 10:59 | 57.93786 | 67.46787 | 36867 ft | 507 kts | 95° |
| 2026-05-01 10:59 | 57.93969 | 67.60098 | 36858 ft | 511 kts | 95° |
| 2026-05-01 11:00 | 57.94094 | 67.73474 | 36859 ft | 512 kts | 95° |
| 2026-05-01 11:00 | 57.94223 | 67.86865 | 36839 ft | 511 kts | 96° |
| 2026-05-01 11:01 | 57.94338 | 68.00209 | 36848 ft | 509 kts | 95° |
| 2026-05-01 11:01 | 57.94432 | 68.13523 | 36833 ft | 509 kts | 95° |
| 2026-05-01 11:02 | 57.94489 | 68.24584 | 36838 ft | 509 kts | 95° |
| 2026-05-01 11:02 | 57.94559 | 68.37923 | 36843 ft | 509 kts | 96° |
| 2026-05-01 11:03 | 57.94634 | 68.53502 | 36839 ft | 509 kts | 96° |
| 2026-05-01 11:03 | 57.94660 | 68.64575 | 36836 ft | 509 kts | 96° |
| 2026-05-01 11:04 | 57.94690 | 68.77905 | 36816 ft | 509 kts | 96° |
| 2026-05-01 11:04 | 57.94709 | 68.91239 | 36819 ft | 510 kts | 96° |
| 2026-05-01 11:05 | 57.94718 | 69.04605 | 36814 ft | 511 kts | 96° |
| 2026-05-01 11:05 | 57.94727 | 69.17971 | 36816 ft | 511 kts | 96° |
| 2026-05-01 11:06 | 57.94724 | 69.31325 | 36816 ft | 510 kts | 96° |
| 2026-05-01 11:06 | 57.94681 | 69.44679 | 36789 ft | 510 kts | 96° |
| 2026-05-01 11:07 | 57.94581 | 69.64734 | 36792 ft | 511 kts | 96° |
| 2026-05-01 11:07 | 57.94503 | 69.78093 | 36796 ft | 510 kts | 96° |
| 2026-05-01 11:08 | 57.94413 | 69.91450 | 36801 ft | 510 kts | 96° |
| 2026-05-01 11:09 | 57.94266 | 70.11385 | 36785 ft | 510 kts | 96° |
| 2026-05-01 11:09 | 57.94151 | 70.24754 | 36786 ft | 512 kts | 96° |
| 2026-05-01 11:10 | 57.93973 | 70.44853 | 36792 ft | 512 kts | 96° |
| 2026-05-01 11:10 | 57.93802 | 70.58245 | 36792 ft | 512 kts | 97° |
| 2026-05-01 11:11 | 57.93628 | 70.71626 | 36796 ft | 511 kts | 97° |
| 2026-05-01 11:11 | 57.93444 | 70.85001 | 36789 ft | 511 kts | 97° |
| 2026-05-01 11:12 | 57.93233 | 70.98374 | 36783 ft | 511 kts | 97° |
| 2026-05-01 11:12 | 57.93031 | 71.11746 | 36784 ft | 511 kts | 97° |
| 2026-05-01 11:13 | 57.92824 | 71.25118 | 36781 ft | 511 kts | 97° |
| 2026-05-01 11:13 | 57.92610 | 71.38489 | 36772 ft | 511 kts | 97° |
| 2026-05-01 11:14 | 57.92348 | 71.51856 | 36777 ft | 512 kts | 97° |
| 2026-05-01 11:14 | 57.92067 | 71.65229 | 36766 ft | 511 kts | 98° |
| 2026-05-01 11:15 | 57.91785 | 71.78603 | 36766 ft | 512 kts | 98° |
| 2026-05-01 11:15 | 57.91495 | 71.91973 | 36775 ft | 511 kts | 98° |
| 2026-05-01 11:16 | 57.91202 | 72.05337 | 36748 ft | 511 kts | 98° |
| 2026-05-01 11:16 | 57.90894 | 72.18721 | 36776 ft | 514 kts | 98° |
| 2026-05-01 11:17 | 57.90535 | 72.32162 | 36780 ft | 514 kts | 98° |
| 2026-05-01 11:17 | 57.90174 | 72.45588 | 36785 ft | 514 kts | 98° |
| 2026-05-01 11:18 | 57.89800 | 72.59008 | 36785 ft | 514 kts | 98° |
| 2026-05-01 11:18 | 57.89408 | 72.72432 | 36780 ft | 514 kts | 98° |
| 2026-05-01 11:19 | 57.89011 | 72.85866 | 36788 ft | 515 kts | 98° |
| 2026-05-01 11:19 | 57.88587 | 72.99317 | 36776 ft | 514 kts | 98° |
| 2026-05-01 11:20 | 57.88156 | 73.12711 | 36788 ft | 513 kts | 98° |
| 2026-05-01 11:20 | 57.87704 | 73.26086 | 36812 ft | 513 kts | 98° |
| 2026-05-01 11:21 | 57.87257 | 73.39468 | 36794 ft | 513 kts | 98° |
| 2026-05-01 11:21 | 57.86810 | 73.52857 | 36818 ft | 514 kts | 98° |
| 2026-05-01 11:22 | 57.86357 | 73.66242 | 36818 ft | 513 kts | 99° |
| 2026-05-01 11:22 | 57.85847 | 73.79612 | 36829 ft | 513 kts | 98° |
| 2026-05-01 11:23 | 57.85325 | 73.92970 | 36829 ft | 513 kts | 99° |
| 2026-05-01 11:23 | 57.84800 | 74.06335 | 36831 ft | 513 kts | 99° |
| 2026-05-01 11:24 | 57.84256 | 74.19726 | 36836 ft | 515 kts | 99° |
| 2026-05-01 11:25 | 57.83429 | 74.39808 | 36853 ft | 514 kts | 99° |
| 2026-05-01 11:25 | 57.82603 | 74.59891 | 36859 ft | 514 kts | 99° |
| 2026-05-01 11:26 | 57.81673 | 74.79930 | 36864 ft | 514 kts | 99° |
| 2026-05-01 11:27 | 57.81057 | 74.93282 | 36868 ft | 514 kts | 100° |
| 2026-05-01 11:27 | 57.80425 | 75.06630 | 36875 ft | 514 kts | 100° |
| 2026-05-01 11:28 | 57.79772 | 75.19967 | 36879 ft | 514 kts | 100° |
| 2026-05-01 11:28 | 57.79115 | 75.33300 | 36876 ft | 514 kts | 99° |
| 2026-05-01 11:29 | 57.78085 | 75.53335 | 36882 ft | 515 kts | 99° |
| 2026-05-01 11:30 | 57.77054 | 75.73384 | 36894 ft | 515 kts | 99° |
| 2026-05-01 11:30 | 57.76368 | 75.86743 | 36898 ft | 515 kts | 100° |
| 2026-05-01 11:31 | 57.75618 | 76.00086 | 36895 ft | 516 kts | 100° |
| 2026-05-01 11:31 | 57.74877 | 76.13468 | 36905 ft | 517 kts | 100° |
| 2026-05-01 11:32 | 57.74105 | 76.26845 | 36905 ft | 517 kts | 100° |
| 2026-05-01 11:32 | 57.73324 | 76.40118 | 36905 ft | 515 kts | 100° |
| 2026-05-01 11:33 | 57.72546 | 76.53431 | 36910 ft | 515 kts | 100° |
| 2026-05-01 11:33 | 57.71743 | 76.66742 | 36921 ft | 516 kts | 100° |
| 2026-05-01 11:34 | 57.70934 | 76.80091 | 36925 ft | 517 kts | 100° |
| 2026-05-01 11:34 | 57.70128 | 76.93453 | 36928 ft | 517 kts | 100° |
| 2026-05-01 11:35 | 57.69272 | 77.06782 | 36929 ft | 516 kts | 101° |
| 2026-05-01 11:35 | 57.68424 | 77.20109 | 36940 ft | 516 kts | 101° |
| 2026-05-01 11:36 | 57.67532 | 77.33419 | 36941 ft | 516 kts | 101° |
| 2026-05-01 11:36 | 57.66656 | 77.46722 | 36952 ft | 516 kts | 101° |
| 2026-05-01 11:37 | 57.65772 | 77.60029 | 36946 ft | 516 kts | 101° |
| 2026-05-01 11:37 | 57.64887 | 77.73323 | 36949 ft | 516 kts | 101° |
| 2026-05-01 11:38 | 57.63942 | 77.86603 | 36946 ft | 516 kts | 101° |
| 2026-05-01 11:38 | 57.62992 | 77.99910 | 36914 ft | 519 kts | 101° |
| 2026-05-01 11:39 | 57.62021 | 78.13224 | 36957 ft | 517 kts | 101° |
| 2026-05-01 11:39 | 57.61052 | 78.26503 | 36961 ft | 517 kts | 102° |
| 2026-05-01 11:40 | 57.60055 | 78.39770 | 36971 ft | 517 kts | 101° |
| 2026-05-01 11:40 | 57.59066 | 78.53031 | 36964 ft | 517 kts | 101° |
| 2026-05-01 11:41 | 57.58057 | 78.66326 | 36975 ft | 519 kts | 101° |
| 2026-05-01 11:41 | 57.57043 | 78.79651 | 36976 ft | 519 kts | 101° |
| 2026-05-01 11:42 | 57.56001 | 78.92958 | 36987 ft | 519 kts | 102° |
| 2026-05-01 11:42 | 57.54938 | 79.06253 | 36984 ft | 519 kts | 102° |
| 2026-05-01 11:43 | 57.53851 | 79.19531 | 36988 ft | 520 kts | 101° |
| 2026-05-01 11:43 | 57.52750 | 79.32848 | 36991 ft | 521 kts | 102° |
| 2026-05-01 11:44 | 57.51096 | 79.52839 | 37000 ft | 521 kts | 102° |
| 2026-05-01 11:44 | 57.49976 | 79.66138 | 36981 ft | 521 kts | 102° |
| 2026-05-01 11:45 | 57.48855 | 79.79431 | 36996 ft | 520 kts | 102° |
| 2026-05-01 11:45 | 57.47700 | 79.92713 | 37015 ft | 521 kts | 102° |
| 2026-05-01 11:46 | 57.46526 | 80.06015 | 37010 ft | 521 kts | 102° |
| 2026-05-01 11:46 | 57.45535 | 80.17053 | 37023 ft | 521 kts | 102° |
| 2026-05-01 11:47 | 57.44330 | 80.30331 | 37019 ft | 521 kts | 102° |
| 2026-05-01 11:47 | 57.43121 | 80.43596 | 37020 ft | 521 kts | 102° |
| 2026-05-01 11:48 | 57.41888 | 80.56882 | 37022 ft | 524 kts | 102° |
| 2026-05-01 11:48 | 57.40641 | 80.70189 | 37029 ft | 523 kts | 102° |
| 2026-05-01 11:49 | 57.39384 | 80.83477 | 37027 ft | 523 kts | 102° |
| 2026-05-01 11:49 | 57.38133 | 80.96767 | 37031 ft | 523 kts | 102° |
| 2026-05-01 11:50 | 57.36869 | 81.10054 | 37029 ft | 524 kts | 102° |
| 2026-05-01 11:50 | 57.35547 | 81.23349 | 37034 ft | 525 kts | 102° |
| 2026-05-01 11:51 | 57.34231 | 81.36640 | 37031 ft | 524 kts | 103° |
| 2026-05-01 11:51 | 57.32899 | 81.49909 | 37044 ft | 524 kts | 103° |
| 2026-05-01 11:52 | 57.31561 | 81.63158 | 37040 ft | 524 kts | 103° |
| 2026-05-01 11:52 | 57.30182 | 81.76395 | 37047 ft | 524 kts | 103° |
| 2026-05-01 11:53 | 57.28815 | 81.89644 | 37049 ft | 525 kts | 103° |
| 2026-05-01 11:53 | 57.27426 | 82.02880 | 37049 ft | 524 kts | 103° |
| 2026-05-01 11:54 | 57.26041 | 82.16106 | 37059 ft | 525 kts | 102° |
| 2026-05-01 11:54 | 57.24660 | 82.29337 | 37051 ft | 524 kts | 102° |
| 2026-05-01 11:55 | 57.23209 | 82.42511 | 37062 ft | 523 kts | 102° |
| 2026-05-01 11:55 | 57.21793 | 82.55596 | 37062 ft | 523 kts | 103° |
| 2026-05-01 11:56 | 57.20337 | 82.68735 | 37070 ft | 523 kts | 102° |
| 2026-05-01 11:56 | 57.18862 | 82.81882 | 37074 ft | 523 kts | 103° |
| 2026-05-01 11:57 | 57.17377 | 82.95013 | 37070 ft | 524 kts | 103° |
| 2026-05-01 11:57 | 57.15869 | 83.08191 | 37072 ft | 526 kts | 102° |
| 2026-05-01 11:58 | 57.14359 | 83.21370 | 37088 ft | 526 kts | 103° |
| 2026-05-01 11:59 | 57.12072 | 83.41124 | 37093 ft | 526 kts | 103° |
| 2026-05-01 11:59 | 57.10558 | 83.54286 | 37090 ft | 526 kts | 103° |
| 2026-05-01 12:00 | 57.08204 | 83.73992 | 37100 ft | 526 kts | 103° |
| 2026-05-01 12:01 | 57.05818 | 83.93682 | 37099 ft | 526 kts | 103° |
| 2026-05-01 12:01 | 57.04229 | 84.06797 | 37095 ft | 526 kts | 103° |
| 2026-05-01 12:02 | 57.02632 | 84.19876 | 37098 ft | 524 kts | 103° |
| 2026-05-01 12:02 | 57.01002 | 84.32900 | 37099 ft | 523 kts | 104° |
| 2026-05-01 12:03 | 56.99368 | 84.45913 | 37101 ft | 523 kts | 104° |
| 2026-05-01 12:03 | 56.97708 | 84.58884 | 37098 ft | 522 kts | 103° |
| 2026-05-01 12:04 | 56.96052 | 84.71815 | 37115 ft | 521 kts | 103° |
| 2026-05-01 12:04 | 56.94372 | 84.84738 | 37118 ft | 522 kts | 103° |
| 2026-05-01 12:05 | 56.92671 | 84.97688 | 37118 ft | 523 kts | 103° |
| 2026-05-01 12:05 | 56.90111 | 85.17076 | 37119 ft | 522 kts | 104° |
| 2026-05-01 12:06 | 56.88407 | 85.29903 | 37114 ft | 522 kts | 103° |
| 2026-05-01 12:06 | 56.86677 | 85.42820 | 37125 ft | 524 kts | 103° |
| 2026-05-01 12:07 | 56.84929 | 85.55758 | 37126 ft | 524 kts | 103° |
| 2026-05-01 12:07 | 56.83189 | 85.68688 | 37128 ft | 524 kts | 103° |
| 2026-05-01 12:08 | 56.81392 | 85.81588 | 37133 ft | 524 kts | 104° |
| 2026-05-01 12:08 | 56.79595 | 85.94476 | 37143 ft | 524 kts | 104° |
| 2026-05-01 12:09 | 56.77789 | 86.07376 | 37114 ft | 525 kts | 104° |
| 2026-05-01 12:09 | 56.75962 | 86.20228 | 37130 ft | 523 kts | 103° |
| 2026-05-01 12:10 | 56.73217 | 86.39442 | 37134 ft | 523 kts | 104° |
| 2026-05-01 12:11 | 56.70459 | 86.58648 | 37150 ft | 522 kts | 103° |
| 2026-05-01 12:11 | 56.68611 | 86.71398 | 37143 ft | 521 kts | 103° |
| 2026-05-01 12:12 | 56.66733 | 86.84126 | 37147 ft | 521 kts | 104° |
| 2026-05-01 12:12 | 56.64849 | 86.96837 | 37145 ft | 521 kts | 104° |
| 2026-05-01 12:13 | 56.62936 | 87.09528 | 37152 ft | 521 kts | 104° |
| 2026-05-01 12:13 | 56.61025 | 87.22210 | 37159 ft | 520 kts | 104° |
| 2026-05-01 12:14 | 56.59084 | 87.34870 | 37158 ft | 521 kts | 104° |
| 2026-05-01 12:14 | 56.57143 | 87.47528 | 37163 ft | 521 kts | 104° |
| 2026-05-01 12:15 | 56.55205 | 87.60172 | 37163 ft | 521 kts | 104° |
| 2026-05-01 12:15 | 56.53272 | 87.72821 | 37183 ft | 521 kts | 104° |
| 2026-05-01 12:16 | 56.51290 | 87.85471 | 37172 ft | 522 kts | 104° |
| 2026-05-01 12:16 | 56.49292 | 87.98109 | 37173 ft | 522 kts | 104° |
| 2026-05-01 12:17 | 56.47288 | 88.10735 | 37176 ft | 522 kts | 104° |
| 2026-05-01 12:17 | 56.45270 | 88.23257 | 37181 ft | 522 kts | 104° |
| 2026-05-01 12:18 | 56.43230 | 88.35852 | 37173 ft | 522 kts | 104° |
| 2026-05-01 12:18 | 56.41181 | 88.48460 | 37166 ft | 523 kts | 104° |
| 2026-05-01 12:19 | 56.39122 | 88.61051 | 37184 ft | 523 kts | 104° |
| 2026-05-01 12:19 | 56.37072 | 88.73641 | 37180 ft | 523 kts | 104° |
| 2026-05-01 12:20 | 56.35004 | 88.86211 | 37210 ft | 523 kts | 105° |
| 2026-05-01 12:20 | 56.32646 | 88.98633 | 37184 ft | 522 kts | 100° |
| 2026-05-01 12:21 | 56.31890 | 89.11524 | 37184 ft | 516 kts | 87° |
| 2026-05-01 12:21 | 56.31742 | 89.24471 | 37181 ft | 517 kts | 88° |
| 2026-05-01 12:22 | 56.31390 | 89.37417 | 37180 ft | 517 kts | 90° |
| 2026-05-01 12:22 | 56.30967 | 89.50333 | 37175 ft | 516 kts | 90° |
| 2026-05-01 12:23 | 56.30568 | 89.63224 | 37179 ft | 515 kts | 89° |
| 2026-05-01 12:23 | 56.30156 | 89.76101 | 37189 ft | 515 kts | 89° |
| 2026-05-01 12:24 | 56.29748 | 89.88991 | 37186 ft | 515 kts | 89° |
| 2026-05-01 12:24 | 56.29313 | 90.01783 | 37188 ft | 516 kts | 90° |
| 2026-05-01 12:25 | 56.28607 | 90.21093 | 37187 ft | 516 kts | 90° |
| 2026-05-01 12:26 | 56.28126 | 90.33967 | 37185 ft | 516 kts | 90° |
| 2026-05-01 12:26 | 56.27374 | 90.53280 | 37190 ft | 516 kts | 90° |
| 2026-05-01 12:27 | 56.25090 | 90.72155 | 37214 ft | 525 kts | 113° |
| 2026-05-01 12:28 | 56.20665 | 90.90199 | 37195 ft | 526 kts | 109° |
| 2026-05-01 12:29 | 56.16698 | 91.08555 | 37193 ft | 526 kts | 109° |
| 2026-05-01 12:29 | 56.12624 | 91.26827 | 37207 ft | 527 kts | 109° |
| 2026-05-01 12:30 | 56.08521 | 91.45112 | 37205 ft | 527 kts | 109° |
| 2026-05-01 12:31 | 56.05804 | 91.57272 | 37199 ft | 527 kts | 109° |
| 2026-05-01 12:31 | 56.03062 | 91.69432 | 37195 ft | 527 kts | 110° |
| 2026-05-01 12:32 | 56.00286 | 91.81552 | 37218 ft | 527 kts | 109° |
| 2026-05-01 12:32 | 55.96128 | 91.99629 | 37217 ft | 527 kts | 109° |
| 2026-05-01 12:33 | 55.93320 | 92.11711 | 37214 ft | 528 kts | 110° |
| 2026-05-01 12:33 | 55.90503 | 92.23782 | 37214 ft | 527 kts | 110° |
| 2026-05-01 12:34 | 55.88144 | 92.33891 | 37225 ft | 528 kts | 110° |
| 2026-05-01 12:34 | 55.85320 | 92.45963 | 37216 ft | 528 kts | 109° |
| 2026-05-01 12:35 | 55.82466 | 92.58003 | 37224 ft | 528 kts | 110° |
| 2026-05-01 12:35 | 55.79604 | 92.69936 | 37220 ft | 528 kts | 110° |
| 2026-05-01 12:36 | 55.76799 | 92.81991 | 37248 ft | 529 kts | 109° |
| 2026-05-01 12:36 | 55.73996 | 92.94044 | 37213 ft | 529 kts | 109° |
| 2026-05-01 12:37 | 55.71168 | 93.06070 | 37218 ft | 528 kts | 110° |
| 2026-05-01 12:37 | 55.68322 | 93.18068 | 37227 ft | 528 kts | 109° |
| 2026-05-01 12:38 | 55.65446 | 93.30042 | 37228 ft | 529 kts | 110° |
| 2026-05-01 12:38 | 55.62561 | 93.42015 | 37248 ft | 528 kts | 109° |
| 2026-05-01 12:39 | 55.59681 | 93.53973 | 37231 ft | 528 kts | 110° |
| 2026-05-01 12:39 | 55.56791 | 93.65912 | 37228 ft | 529 kts | 110° |
| 2026-05-01 12:40 | 55.53907 | 93.77866 | 37229 ft | 529 kts | 109° |
| 2026-05-01 12:40 | 55.50978 | 93.89772 | 37263 ft | 529 kts | 110° |
| 2026-05-01 12:41 | 55.48040 | 94.01671 | 37238 ft | 529 kts | 109° |
| 2026-05-01 12:41 | 55.45264 | 94.12830 | 37210 ft | 530 kts | 110° |
| 2026-05-01 12:42 | 55.42309 | 94.24689 | 37215 ft | 528 kts | 110° |
| 2026-05-01 12:42 | 55.39348 | 94.36509 | 37223 ft | 528 kts | 110° |
| 2026-05-01 12:43 | 55.36381 | 94.48343 | 37238 ft | 528 kts | 110° |
| 2026-05-01 12:43 | 55.33394 | 94.60147 | 37234 ft | 529 kts | 110° |
| 2026-05-01 12:44 | 55.30402 | 94.71952 | 37221 ft | 529 kts | 110° |
| 2026-05-01 12:45 | 55.25101 | 94.95722 | 37231 ft | 515 kts | 92° |
| 2026-05-01 12:45 | 55.24561 | 95.08161 | 37229 ft | 512 kts | 88° |
| 2026-05-01 12:46 | 55.23838 | 95.20583 | 37244 ft | 515 kts | 91° |
| 2026-05-01 12:46 | 55.22901 | 95.33038 | 37228 ft | 515 kts | 91° |
| 2026-05-01 12:47 | 55.22006 | 95.45485 | 37224 ft | 515 kts | 91° |
| 2026-05-01 12:47 | 55.21058 | 95.57934 | 37237 ft | 515 kts | 91° |
| 2026-05-01 12:48 | 55.20132 | 95.70375 | 37235 ft | 515 kts | 91° |
| 2026-05-01 12:48 | 55.19168 | 95.82807 | 37233 ft | 515 kts | 91° |
| 2026-05-01 12:49 | 55.18199 | 95.95243 | 37236 ft | 516 kts | 92° |
| 2026-05-01 12:49 | 55.17224 | 96.07682 | 37271 ft | 516 kts | 91° |
| 2026-05-01 12:50 | 55.16215 | 96.20104 | 37244 ft | 516 kts | 91° |
| 2026-05-01 12:50 | 55.15226 | 96.32451 | 37240 ft | 516 kts | 92° |
| 2026-05-01 12:51 | 55.14211 | 96.44945 | 37252 ft | 516 kts | 92° |
| 2026-05-01 12:52 | 55.12706 | 96.63563 | 37270 ft | 516 kts | 91° |
| 2026-05-01 12:52 | 55.11119 | 96.82108 | 37250 ft | 514 kts | 92° |
| 2026-05-01 12:53 | 55.09528 | 97.00563 | 37249 ft | 515 kts | 92° |
| 2026-05-01 12:54 | 55.08411 | 97.12916 | 37253 ft | 516 kts | 93° |
| 2026-05-01 12:54 | 55.06542 | 97.31388 | 37252 ft | 514 kts | 92° |
| 2026-05-01 12:55 | 55.04768 | 97.49837 | 37244 ft | 514 kts | 93° |
| 2026-05-01 12:56 | 55.03562 | 97.62124 | 37258 ft | 514 kts | 93° |
| 2026-05-01 12:56 | 55.02375 | 97.74408 | 37280 ft | 513 kts | 93° |
| 2026-05-01 12:57 | 55.01190 | 97.86667 | 37260 ft | 513 kts | 93° |
| 2026-05-01 12:57 | 54.99322 | 98.05021 | 37260 ft | 513 kts | 94° |
| 2026-05-01 12:58 | 54.98057 | 98.17244 | 37262 ft | 513 kts | 93° |
| 2026-05-01 12:59 | 54.97096 | 98.26666 | 37265 ft | 513 kts | 93° |
| 2026-05-01 12:59 | 54.95238 | 98.44949 | 37292 ft | 512 kts | 94° |
| 2026-05-01 13:00 | 54.93283 | 98.63219 | 37252 ft | 512 kts | 94° |
| 2026-05-01 13:01 | 54.91326 | 98.81375 | 37267 ft | 511 kts | 94° |
| 2026-05-01 13:02 | 54.89392 | 98.99587 | 37248 ft | 511 kts | 94° |
| 2026-05-01 13:07 | 54.72724 | 100.32392 | 37249 ft | 513 kts | 97° |
| 2026-05-01 13:08 | 54.71127 | 100.44444 | 37253 ft | 514 kts | 97° |
| 2026-05-01 13:08 | 54.69523 | 100.56479 | 37254 ft | 514 kts | 97° |
| 2026-05-01 13:09 | 54.67907 | 100.68510 | 37249 ft | 514 kts | 97° |
| 2026-05-01 13:09 | 54.66295 | 100.80535 | 37248 ft | 514 kts | 97° |
| 2026-05-01 13:10 | 54.64692 | 100.92557 | 37263 ft | 514 kts | 97° |
| 2026-05-01 13:10 | 54.63020 | 101.04576 | 37254 ft | 515 kts | 97° |
| 2026-05-01 13:11 | 54.61353 | 101.16578 | 37247 ft | 515 kts | 98° |
| 2026-05-01 13:11 | 54.59680 | 101.28502 | 37256 ft | 515 kts | 98° |
| 2026-05-01 13:12 | 54.57983 | 101.40578 | 37280 ft | 515 kts | 98° |
| 2026-05-01 13:12 | 54.56274 | 101.52566 | 37276 ft | 515 kts | 98° |
| 2026-05-01 13:13 | 54.54570 | 101.64550 | 37253 ft | 515 kts | 98° |
| 2026-05-01 13:13 | 54.52875 | 101.76527 | 37255 ft | 515 kts | 98° |
| 2026-05-01 13:14 | 54.51139 | 101.88500 | 37291 ft | 516 kts | 98° |
| 2026-05-01 13:14 | 54.49388 | 102.00447 | 37196 ft | 513 kts | 98° |
| 2026-05-01 13:14 | 54.48507 | 102.06352 | 36949 ft | 507 kts | 98° |
| 2026-05-01 13:15 | 54.47639 | 102.12096 | 36691 ft | 499 kts | 98° |
| 2026-05-01 13:15 | 54.46781 | 102.17835 | 36431 ft | 492 kts | 98° |
| 2026-05-01 13:15 | 54.45931 | 102.23503 | 36177 ft | 487 kts | 98° |
| 2026-05-01 13:15 | 54.45082 | 102.29118 | 35927 ft | 485 kts | 97° |
| 2026-05-01 13:16 | 54.44233 | 102.34705 | 35678 ft | 483 kts | 97° |
| 2026-05-01 13:16 | 54.43377 | 102.40272 | 35470 ft | 480 kts | 97° |
| 2026-05-01 13:16 | 54.42522 | 102.45804 | 35226 ft | 478 kts | 97° |
| 2026-05-01 13:17 | 54.40005 | 102.62265 | 34508 ft | 472 kts | 97° |
| 2026-05-01 13:17 | 54.39153 | 102.67696 | 34268 ft | 471 kts | 97° |
| 2026-05-01 13:18 | 54.37489 | 102.78508 | 33711 ft | 467 kts | 96° |
| 2026-05-01 13:18 | 54.36602 | 102.83865 | 33457 ft | 467 kts | 98° |
| 2026-05-01 13:18 | 54.35680 | 102.89189 | 33183 ft | 464 kts | 98° |
| 2026-05-01 13:18 | 54.34810 | 102.94491 | 32953 ft | 461 kts | 97° |
| 2026-05-01 13:19 | 54.33989 | 102.99781 | 32684 ft | 459 kts | 96° |
| 2026-05-01 13:19 | 54.33183 | 103.05064 | 32422 ft | 457 kts | 96° |
| 2026-05-01 13:19 | 54.31589 | 103.15548 | 31895 ft | 455 kts | 99° |
| 2026-05-01 13:20 | 54.30212 | 103.20497 | 31689 ft | 471 kts | 122° |
| 2026-05-01 13:20 | 54.28731 | 103.23243 | 31468 ft | 480 kts | 138° |
| 2026-05-01 13:20 | 54.25896 | 103.26259 | 31222 ft | 481 kts | 154° |
| 2026-05-01 13:21 | 54.19709 | 103.30515 | 30716 ft | 480 kts | 159° |
| 2026-05-01 13:21 | 54.16605 | 103.32598 | 30471 ft | 480 kts | 158° |
| 2026-05-01 13:21 | 54.13515 | 103.34744 | 30273 ft | 478 kts | 157° |
| 2026-05-01 13:21 | 54.10448 | 103.36938 | 29988 ft | 477 kts | 157° |
| 2026-05-01 13:22 | 54.07398 | 103.39131 | 29693 ft | 475 kts | 157° |
| 2026-05-01 13:22 | 54.04352 | 103.41310 | 29417 ft | 474 kts | 157° |
| 2026-05-01 13:22 | 54.01314 | 103.43448 | 29133 ft | 471 kts | 157° |
| 2026-05-01 13:22 | 53.98294 | 103.45598 | 28826 ft | 469 kts | 157° |
| 2026-05-01 13:23 | 53.95286 | 103.47706 | 28551 ft | 467 kts | 157° |
| 2026-05-01 13:23 | 53.92302 | 103.49828 | 28276 ft | 464 kts | 157° |
| 2026-05-01 13:23 | 53.89325 | 103.51914 | 28004 ft | 462 kts | 158° |
| 2026-05-01 13:23 | 53.86362 | 103.53992 | 27736 ft | 460 kts | 157° |
| 2026-05-01 13:24 | 53.83421 | 103.56066 | 27466 ft | 457 kts | 158° |
| 2026-05-01 13:24 | 53.80476 | 103.58095 | 27190 ft | 455 kts | 157° |
| 2026-05-01 13:24 | 53.77568 | 103.60170 | 26931 ft | 453 kts | 157° |
| 2026-05-01 13:25 | 53.71762 | 103.64193 | 26389 ft | 448 kts | 157° |
| 2026-05-01 13:25 | 53.68893 | 103.66215 | 26162 ft | 446 kts | 157° |
| 2026-05-01 13:25 | 53.66034 | 103.68237 | 25912 ft | 444 kts | 157° |
| 2026-05-01 13:25 | 53.63181 | 103.70230 | 25666 ft | 443 kts | 157° |
| 2026-05-01 13:26 | 53.60349 | 103.72231 | 25420 ft | 440 kts | 156° |
| 2026-05-01 13:26 | 53.57531 | 103.74236 | 25177 ft | 439 kts | 156° |
| 2026-05-01 13:26 | 53.54721 | 103.76190 | 24933 ft | 437 kts | 157° |
| 2026-05-01 13:26 | 53.51910 | 103.78106 | 24701 ft | 435 kts | 157° |
| 2026-05-01 13:27 | 53.49126 | 103.80044 | 24473 ft | 433 kts | 157° |
| 2026-05-01 13:27 | 53.46343 | 103.81956 | 24228 ft | 431 kts | 157° |
| 2026-05-01 13:27 | 53.40821 | 103.85749 | 23725 ft | 427 kts | 157° |
| 2026-05-01 13:28 | 53.35438 | 103.89883 | 22936 ft | 427 kts | 150° |
| 2026-05-01 13:28 | 53.32868 | 103.92303 | 22598 ft | 421 kts | 149° |
| 2026-05-01 13:29 | 53.27849 | 103.97086 | 22104 ft | 411 kts | 149° |
| 2026-05-01 13:29 | 53.22871 | 104.01796 | 21218 ft | 411 kts | 149° |
| 2026-05-01 13:30 | 53.12924 | 104.11076 | 19060 ft | 412 kts | 150° |
| 2026-05-01 13:31 | 53.07933 | 104.15742 | 17951 ft | 409 kts | 151° |
| 2026-05-01 13:31 | 53.00565 | 104.22491 | 16495 ft | 397 kts | 151° |
| 2026-05-01 13:32 | 52.95761 | 104.26835 | 15546 ft | 389 kts | 152° |
| 2026-05-01 13:33 | 52.88740 | 104.33146 | 14202 ft | 376 kts | 151° |
| 2026-05-01 13:33 | 52.84184 | 104.37241 | 13152 ft | 369 kts | 152° |
| 2026-05-01 13:34 | 52.79697 | 104.41258 | 12089 ft | 364 kts | 152° |
| 2026-05-01 13:34 | 52.75269 | 104.45194 | 11038 ft | 358 kts | 153° |
| 2026-05-01 13:35 | 52.70869 | 104.48455 | 10496 ft | 335 kts | 158° |
| 2026-05-01 13:35 | 52.68758 | 104.49917 | 10304 ft | 323 kts | 158° |
| 2026-05-01 13:35 | 52.64704 | 104.52713 | 9632 ft | 312 kts | 158° |
| 2026-05-01 13:36 | 52.62714 | 104.54086 | 9230 ft | 309 kts | 157° |
| 2026-05-01 13:36 | 52.60745 | 104.55456 | 8816 ft | 306 kts | 158° |
| 2026-05-01 13:36 | 52.56846 | 104.58156 | 8285 ft | 303 kts | 158° |
| 2026-05-01 13:37 | 52.54907 | 104.59502 | 8043 ft | 302 kts | 157° |
| 2026-05-01 13:37 | 52.52973 | 104.60833 | 7784 ft | 301 kts | 157° |
| 2026-05-01 13:37 | 52.51053 | 104.62171 | 7528 ft | 299 kts | 157° |
| 2026-05-01 13:37 | 52.49138 | 104.63489 | 7280 ft | 298 kts | 157° |
| 2026-05-01 13:38 | 52.45335 | 104.66116 | 6795 ft | 295 kts | 157° |
| 2026-05-01 13:38 | 52.43446 | 104.67412 | 6543 ft | 294 kts | 157° |
| 2026-05-01 13:38 | 52.41570 | 104.68709 | 6293 ft | 292 kts | 157° |
| 2026-05-01 13:39 | 52.39702 | 104.69992 | 6027 ft | 291 kts | 157° |
| 2026-05-01 13:39 | 52.37843 | 104.71270 | 5763 ft | 289 kts | 157° |
| 2026-05-01 13:39 | 52.35993 | 104.72537 | 5504 ft | 287 kts | 157° |
| 2026-05-01 13:39 | 52.34157 | 104.73803 | 5252 ft | 286 kts | 157° |
| 2026-05-01 13:40 | 52.32326 | 104.75061 | 4988 ft | 285 kts | 157° |
| 2026-05-01 13:40 | 52.30499 | 104.76304 | 4735 ft | 283 kts | 157° |
| 2026-05-01 13:40 | 52.28709 | 104.77539 | 4595 ft | 276 kts | 157° |
| 2026-05-01 13:40 | 52.26892 | 104.78515 | 4484 ft | 276 kts | 176° |
| 2026-05-01 13:41 | 52.25004 | 104.78186 | 4508 ft | 273 kts | 194° |
| 2026-05-01 13:41 | 52.23148 | 104.77436 | 4504 ft | 277 kts | 196° |
| 2026-05-01 13:41 | 52.21277 | 104.76676 | 4489 ft | 276 kts | 196° |
| 2026-05-01 13:41 | 52.19591 | 104.75326 | 4497 ft | 269 kts | 226° |
| 2026-05-01 13:42 | 52.18659 | 104.72789 | 4501 ft | 261 kts | 260° |
| 2026-05-01 13:42 | 52.18733 | 104.69933 | 4512 ft | 251 kts | 287° |
| 2026-05-01 13:42 | 52.19277 | 104.67308 | 4491 ft | 237 kts | 293° |
| 2026-05-01 13:42 | 52.19868 | 104.64896 | 4488 ft | 222 kts | 295° |
| 2026-05-01 13:43 | 52.20503 | 104.62736 | 4491 ft | 208 kts | 302° |
| 2026-05-01 13:43 | 52.21190 | 104.60693 | 4475 ft | 207 kts | 296° |
| 2026-05-01 13:43 | 52.21740 | 104.58484 | 4212 ft | 215 kts | 295° |
| 2026-05-01 13:43 | 52.22344 | 104.56190 | 3764 ft | 223 kts | 295° |
| 2026-05-01 13:44 | 52.22954 | 104.53869 | 3474 ft | 222 kts | 295° |
| 2026-05-01 13:44 | 52.23552 | 104.51589 | 3141 ft | 214 kts | 295° |
| 2026-05-01 13:44 | 52.24067 | 104.49623 | 2965 ft | 0 kts | 295° |
| 2026-05-01 13:44 | 52.24404 | 104.48462 | 2807 ft | 201 kts | 297° |
| 2026-05-01 13:45 | 52.24936 | 104.46497 | 2513 ft | 178 kts | 295° |
| 2026-05-01 13:45 | 52.25328 | 104.44653 | 2155 ft | 165 kts | 287° |
| 2026-05-01 13:45 | 52.25735 | 104.43020 | 1905 ft | 144 kts | 292° |
| 2026-05-01 13:45 | 52.26123 | 104.41637 | 1770 ft | 127 kts | 289° |
| 2026-05-01 13:46 | 52.26456 | 104.40393 | 1675 ft | 108 kts | 291° |
| 2026-05-01 13:46 | 52.26647 | 104.39689 | 1652 ft | 24 kts | 294° |
| 2026-05-01 13:46 | 52.26663 | 104.39630 | 1651 ft | 7 kts | 293° |
| 2026-05-01 13:46 | 52.26709 | 104.39448 | 1646 ft | 28 kts | 292° |
| 2026-05-01 13:47 | 52.26733 | 104.39322 | 1644 ft | 1 kts | 278° |
| 2026-05-01 13:47 | 52.26756 | 104.39248 | 1643 ft | 18 kts | 296° |
| 2026-05-01 13:47 | 52.26822 | 104.39010 | 1638 ft | 26 kts | 296° |
| 2026-05-01 13:47 | 52.26913 | 104.38714 | 1633 ft | 32 kts | 297° |
| 2026-05-01 13:48 | 52.27013 | 104.38363 | 1627 ft | 25 kts | 290° |
| 2026-05-01 13:48 | 52.27031 | 104.38121 | 1619 ft | 21 kts | 233° |
| 2026-05-01 13:48 | 52.26983 | 104.38074 | 1620 ft | 0 kts | 203° |
| 2026-05-01 13:49 | 52.26980 | 104.38072 | 1620 ft | 3 kts | 204° |
| 2026-05-01 13:49 | 52.26919 | 104.38025 | 1623 ft | 16 kts | 204° |
| 2026-05-01 13:49 | 52.26903 | 104.38013 | 1623 ft | 2 kts | 205° |
| 2026-05-01 13:49 | 52.26883 | 104.37997 | 1623 ft | 0 kts | 206° |
| 2026-05-01 13:50 | 52.26868 | 104.37984 | 1618 ft | 7 kts | 206° |
| 2026-05-01 13:50 | 52.26864 | 104.37982 | 1618 ft | 0 kts | 206° |
| 2026-05-01 13:50 | 52.26842 | 104.37962 | 1622 ft | 11 kts | 211° |
| 2026-05-01 13:50 | 52.26753 | 104.37793 | 1619 ft | 25 kts | 242° |
| 2026-05-01 13:51 | 52.26795 | 104.37552 | 1616 ft | 31 kts | 294° |